Time;durP1;ratioP1;P1;durP2;ratioP2;P2;SDS_P1;SDS_P2;PMS_P1;PMS_P2;Temp;Humidity;BMP_temperature;BMP_pressure;BME280_temperature;BME280_humidity;BME280_pressure;Samples;Min_cycle;Max_cycle;Signal;HPM_P1;HPM_P2
2022/11/09 00:01:11;;;;;;;18.90;9.93;;;7.80;99.90;;;;;;5049427;28;20036;-66
2022/11/09 00:03:37;;;;;;;22.15;10.95;;;7.80;99.90;;;;;;5047271;28;20386;-66
2022/11/09 00:06:02;;;;;;;28.02;12.80;;;7.90;99.90;;;;;;5046843;28;20037;-72
2022/11/09 00:08:28;;;;;;;24.65;11.68;;;7.90;99.90;;;;;;5031733;28;20052;-64
2022/11/09 00:10:54;;;;;;;22.60;11.35;;;7.80;99.90;;;;;;5029578;28;20040;-66
2022/11/09 00:13:20;;;;;;;23.25;11.75;;;7.90;99.90;;;;;;5037384;28;20098;-66
2022/11/09 00:15:45;;;;;;;23.08;10.85;;;7.90;99.90;;;;;;5048691;28;20111;-65
2022/11/09 00:18:11;;;;;;;21.75;10.02;;;7.90;99.90;;;;;;5038141;28;20105;-67
2022/11/09 00:20:36;;;;;;;20.08;9.52;;;7.90;99.90;;;;;;5029930;28;20182;-65
2022/11/09 00:23:02;;;;;;;18.45;9.40;;;7.90;99.90;;;;;;5028702;28;20045;-73
2022/11/09 00:25:28;;;;;;;20.05;9.32;;;7.90;99.90;;;;;;5028486;28;20048;-65
2022/11/09 00:27:53;;;;;;;17.38;9.82;;;8.00;99.90;;;;;;5032803;28;20794;-65
2022/11/09 00:30:19;;;;;;;18.63;9.38;;;8.00;99.90;;;;;;5028124;28;20624;-70
2022/11/09 00:32:45;;;;;;;21.08;9.48;;;8.00;99.90;;;;;;5033965;28;20029;-66
2022/11/09 00:35:10;;;;;;;15.93;8.95;;;8.00;99.90;;;;;;5043082;28;20036;-67
2022/11/09 00:37:36;;;;;;;20.25;9.48;;;8.10;99.90;;;;;;5035545;28;20516;-66
2022/11/09 00:40:01;;;;;;;17.35;8.25;;;8.10;99.90;;;;;;5040970;28;20028;-72
2022/11/09 00:42:27;;;;;;;18.48;9.35;;;8.10;99.90;;;;;;5034478;28;20048;-65
2022/11/09 00:44:53;;;;;;;21.48;9.75;;;8.10;99.90;;;;;;5031434;28;20153;-66
2022/11/09 00:47:18;;;;;;;17.52;8.88;;;8.10;99.90;;;;;;5026235;28;20029;-68
2022/11/09 00:49:44;;;;;;;17.50;8.98;;;8.10;99.90;;;;;;5034478;28;20032;-68
2022/11/09 00:52:09;;;;;;;17.92;8.77;;;8.10;99.90;;;;;;5032152;28;20088;-66
2022/11/09 00:54:35;;;;;;;17.02;8.88;;;8.10;99.90;;;;;;5045424;28;20047;-69
2022/11/09 00:57:01;;;;;;;19.10;8.52;;;8.10;99.90;;;;;;5046817;28;20035;-72
2022/11/09 00:59:26;;;;;;;16.92;9.02;;;8.20;99.90;;;;;;5041150;28;20037;-63
2022/11/09 01:01:52;;;;;;;17.63;8.55;;;8.10;99.90;;;;;;5035724;28;20115;-68
2022/11/09 01:04:18;;;;;;;19.65;8.63;;;8.10;99.90;;;;;;5044209;28;20033;-65
2022/11/09 01:06:43;;;;;;;18.50;9.45;;;8.10;99.90;;;;;;5035050;28;20846;-66
2022/11/09 01:09:09;;;;;;;17.10;8.50;;;8.10;99.90;;;;;;5033426;28;20460;-68
2022/11/09 01:11:35;;;;;;;16.63;8.77;;;8.00;99.90;;;;;;5045593;28;20037;-68
2022/11/09 01:14:01;;;;;;;15.88;8.15;;;8.10;99.90;;;;;;5041730;28;20036;-68
2022/11/09 01:16:26;;;;;;;22.00;10.75;;;8.00;99.90;;;;;;5036173;28;20087;-66
2022/11/09 01:18:54;;;;;;;14.40;8.30;;;8.00;99.90;;;;;;5043136;28;20124;-68
2022/11/09 01:21:20;;;;;;;18.80;8.00;;;8.00;99.90;;;;;;5025357;28;20057;-67
2022/11/09 01:23:46;;;;;;;18.08;8.32;;;8.10;99.90;;;;;;5036303;28;20041;-64
2022/11/09 01:26:14;;;;;;;18.73;9.20;;;8.10;99.90;;;;;;5031161;28;20107;-68
2022/11/09 01:28:40;;;;;;;16.90;8.05;;;8.10;99.90;;;;;;5032110;28;20112;-66
2022/11/09 01:31:14;;;;;;;17.85;8.55;;;8.10;99.90;;;;;;5042288;28;20064;-72
2022/11/09 01:33:40;;;;;;;14.77;7.70;;;8.10;99.90;;;;;;5018133;28;20036;-66
2022/11/09 01:36:08;;;;;;;13.35;7.15;;;8.00;99.90;;;;;;5046740;28;20048;-72
2022/11/09 01:38:36;;;;;;;17.52;7.80;;;8.10;99.90;;;;;;5037099;28;20541;-68
2022/11/09 01:41:03;;;;;;;15.75;7.68;;;8.00;99.90;;;;;;5045273;28;20055;-66
2022/11/09 01:43:29;;;;;;;14.25;8.02;;;8.00;99.90;;;;;;5040095;28;20548;-67
2022/11/09 01:46:02;;;;;;;16.50;8.30;;;7.90;99.90;;;;;;5038741;28;20041;-66
2022/11/09 01:48:30;;;;;;;16.42;7.93;;;7.90;99.90;;;;;;5030935;28;20034;-67
2022/11/09 01:51:01;;;;;;;19.08;8.75;;;7.90;99.90;;;;;;5045127;28;20476;-66
2022/11/09 01:53:32;;;;;;;17.63;8.60;;;7.90;99.90;;;;;;5030487;28;20065;-66
2022/11/09 01:56:01;;;;;;;16.60;8.93;;;7.90;99.90;;;;;;5041928;28;20114;-65
2022/11/09 01:58:40;;;;;;;15.18;8.02;;;7.90;99.90;;;;;;5038439;28;20044;-66
2022/11/09 02:01:09;;;;;;;18.10;8.70;;;7.90;99.90;;;;;;5036258;28;20025;-72
2022/11/09 02:03:41;;;;;;;16.58;8.68;;;7.90;99.90;;;;;;5045092;28;20032;-67
2022/11/09 02:06:10;;;;;;;20.50;8.57;;;7.90;99.90;;;;;;5046906;28;20040;-72
2022/11/09 02:08:35;;;;;;;19.58;8.85;;;7.90;99.90;;;;;;5029656;28;20466;-67
2022/11/09 02:11:09;;;;;;;20.60;8.80;;;7.90;99.90;;;;;;5035312;28;20052;-66
2022/11/09 02:13:38;;;;;;;16.92;8.40;;;8.00;99.90;;;;;;5030721;28;20032;-66
2022/11/09 02:16:04;;;;;;;17.50;8.43;;;8.00;99.90;;;;;;5033501;28;20033;-66
2022/11/09 02:18:31;;;;;;;20.20;8.77;;;8.00;99.90;;;;;;5040784;28;20041;-66
2022/11/09 02:20:57;;;;;;;18.02;9.30;;;8.00;99.90;;;;;;5045514;28;20036;-65
2022/11/09 02:23:25;;;;;;;17.83;8.68;;;7.90;99.90;;;;;;5049127;28;20493;-71
2022/11/09 02:25:58;;;;;;;15.60;7.97;;;7.90;99.90;;;;;;5030007;28;20033;-65
2022/11/09 02:28:25;;;;;;;15.82;8.30;;;7.90;99.90;;;;;;5031817;28;20044;-71
2022/11/09 02:30:54;;;;;;;17.98;7.93;;;7.90;99.90;;;;;;5042005;28;20036;-66
2022/11/09 02:33:20;;;;;;;17.08;8.68;;;7.90;99.90;;;;;;5028648;28;20617;-66
2022/11/09 02:35:45;;;;;;;23.58;8.57;;;7.90;99.90;;;;;;5049373;28;20067;-67
2022/11/09 02:38:13;;;;;;;17.45;8.75;;;7.90;99.90;;;;;;5049846;28;20037;-71
2022/11/09 02:40:41;;;;;;;16.48;8.35;;;8.00;99.90;;;;;;5039912;28;20547;-69
2022/11/09 02:43:10;;;;;;;16.95;8.63;;;8.00;99.90;;;;;;5037128;28;20183;-69
2022/11/09 02:45:35;;;;;;;20.17;8.77;;;8.00;99.90;;;;;;5037714;28;20029;-67
2022/11/09 02:48:01;;;;;;;16.05;8.57;;;8.00;99.90;;;;;;5033065;28;20496;-67
2022/11/09 02:50:27;;;;;;;16.08;8.55;;;8.00;99.90;;;;;;5043705;28;20036;-67
2022/11/09 02:52:53;;;;;;;17.92;8.80;;;8.10;99.90;;;;;;5047423;28;20025;-67
2022/11/09 02:55:18;;;;;;;16.10;8.60;;;8.10;99.90;;;;;;5047928;28;20198;-66
2022/11/09 02:57:44;;;;;;;18.90;9.35;;;8.10;99.90;;;;;;5043014;28;20071;-67
2022/11/09 03:00:10;;;;;;;20.13;8.50;;;8.10;99.90;;;;;;5045694;28;20164;-71
2022/11/09 03:02:36;;;;;;;16.60;8.45;;;8.10;99.90;;;;;;5044565;28;20029;-66
2022/11/09 03:05:02;;;;;;;19.42;8.52;;;8.10;99.90;;;;;;5033374;28;20033;-66
2022/11/09 03:07:28;;;;;;;17.25;8.57;;;8.10;99.90;;;;;;5028412;28;20080;-67
2022/11/09 03:09:53;;;;;;;17.98;8.50;;;8.10;99.90;;;;;;5036156;28;20533;-66
2022/11/09 03:12:29;;;;;;;15.05;8.55;;;8.10;99.90;;;;;;5034249;28;20406;-67
2022/11/09 03:14:59;;;;;;;14.52;8.70;;;8.10;99.90;;;;;;5042655;28;20032;-66
2022/11/09 03:17:25;;;;;;;19.00;8.52;;;8.00;99.90;;;;;;5028631;28;20021;-72
2022/11/09 03:19:51;;;;;;;19.27;8.70;;;8.10;99.90;;;;;;5040750;28;20038;-65
2022/11/09 03:22:17;;;;;;;16.42;8.35;;;8.10;99.90;;;;;;5041780;28;20092;-65
2022/11/09 03:24:43;;;;;;;15.52;8.00;;;8.10;99.90;;;;;;5039255;28;20219;-66
2022/11/09 03:27:09;;;;;;;19.65;8.65;;;8.10;99.90;;;;;;5035264;28;20048;-67
2022/11/09 03:29:34;;;;;;;15.23;8.30;;;8.20;99.90;;;;;;5036397;28;20037;-66
2022/11/09 03:32:00;;;;;;;16.00;8.65;;;8.30;99.90;;;;;;5034243;28;20060;-69
2022/11/09 03:34:26;;;;;;;15.85;8.02;;;8.30;99.90;;;;;;5040789;28;20036;-66
2022/11/09 03:36:51;;;;;;;15.27;8.27;;;8.30;99.90;;;;;;5050404;28;20029;-65
2022/11/09 03:39:17;;;;;;;17.08;9.25;;;8.40;99.90;;;;;;5046751;28;20033;-69
2022/11/09 03:41:43;;;;;;;21.77;9.38;;;8.30;99.90;;;;;;5049718;28;20036;-67
2022/11/09 03:44:08;;;;;;;19.65;8.77;;;8.40;99.90;;;;;;5042898;28;20117;-67
2022/11/09 03:46:34;;;;;;;20.25;9.20;;;8.40;99.90;;;;;;5027269;28;20486;-69
2022/11/09 03:48:59;;;;;;;17.95;8.32;;;8.40;99.90;;;;;;5051547;28;20052;-67
2022/11/09 03:51:25;;;;;;;19.60;7.97;;;8.40;99.90;;;;;;5031976;28;20390;-67
2022/11/09 03:53:51;;;;;;;15.52;8.32;;;8.30;99.90;;;;;;5028536;28;20046;-65
2022/11/09 03:56:17;;;;;;;16.25;8.18;;;8.30;99.90;;;;;;5035603;28;20033;-72
2022/11/09 03:58:42;;;;;;;16.17;8.35;;;8.20;99.90;;;;;;5050331;28;20090;-66
2022/11/09 04:01:09;;;;;;;16.95;8.85;;;8.30;99.90;;;;;;5041306;28;20029;-65
2022/11/09 04:03:35;;;;;;;20.95;9.40;;;8.30;99.90;;;;;;5049354;28;20025;-66
2022/11/09 04:06:01;;;;;;;18.10;8.35;;;8.20;99.90;;;;;;5047899;28;20064;-67
2022/11/09 04:08:26;;;;;;;17.80;9.27;;;8.20;99.90;;;;;;5033542;28;20576;-66
2022/11/09 04:10:52;;;;;;;17.75;8.70;;;8.20;99.90;;;;;;5029412;28;20037;-66
2022/11/09 04:13:17;;;;;;;17.75;8.93;;;8.20;99.90;;;;;;5029368;28;20036;-66
2022/11/09 04:15:43;;;;;;;16.02;8.57;;;8.20;99.90;;;;;;5036259;28;20203;-66
2022/11/09 04:18:12;;;;;;;16.17;8.80;;;8.20;99.90;;;;;;5049982;28;20359;-66
2022/11/09 04:20:38;;;;;;;17.90;8.15;;;8.20;99.90;;;;;;5044191;28;20028;-64
2022/11/09 04:23:05;;;;;;;18.23;7.57;;;8.20;99.90;;;;;;5043452;28;20536;-64
2022/11/09 04:25:34;;;;;;;13.55;7.28;;;8.30;99.90;;;;;;5035157;28;20099;-66
2022/11/09 04:28:01;;;;;;;13.38;6.95;;;8.40;99.90;;;;;;5030062;28;20378;-66
2022/11/09 04:30:28;;;;;;;14.90;6.95;;;8.50;99.90;;;;;;5045156;28;20032;-65
2022/11/09 04:32:55;;;;;;;10.60;5.13;;;8.60;99.90;;;;;;5045307;28;20029;-66
2022/11/09 04:35:22;;;;;;;11.40;6.32;;;8.80;99.90;;;;;;5043919;28;20033;-68
2022/11/09 04:37:55;;;;;;;13.93;7.00;;;8.90;99.90;;;;;;5034756;28;20052;-66
2022/11/09 04:40:21;;;;;;;12.65;6.30;;;8.90;99.90;;;;;;5008250;28;20532;-68
2022/11/09 04:42:46;;;;;;;7.95;4.20;;;8.90;99.90;;;;;;5024999;28;20470;-65
2022/11/09 04:45:12;;;;;;;13.65;6.30;;;9.00;99.90;;;;;;5041908;28;20071;-66
2022/11/09 04:47:38;;;;;;;9.25;4.75;;;9.20;99.90;;;;;;5030009;28;20385;-64
2022/11/09 04:50:04;;;;;;;8.50;4.60;;;9.20;99.90;;;;;;5034053;28;20037;-67
2022/11/09 04:52:29;;;;;;;9.93;4.80;;;9.30;99.90;;;;;;5046011;28;20250;-67
2022/11/09 04:54:55;;;;;;;7.97;4.38;;;9.50;99.90;;;;;;5040374;28;20044;-67
2022/11/09 04:57:20;;;;;;;11.00;4.65;;;9.70;99.90;;;;;;5032555;28;20543;-67
2022/11/09 04:59:46;;;;;;;8.65;4.35;;;9.80;99.90;;;;;;5031280;28;20066;-65
2022/11/09 05:02:11;;;;;;;12.52;4.70;;;9.90;99.90;;;;;;5046197;28;20080;-66
2022/11/09 05:04:37;;;;;;;9.27;4.80;;;9.90;99.90;;;;;;5044641;28;20032;-65
2022/11/09 05:07:03;;;;;;;11.30;4.90;;;10.00;99.90;;;;;;5030762;28;20033;-67
2022/11/09 05:09:28;;;;;;;11.50;5.20;;;9.90;99.90;;;;;;5025603;28;20033;-67
2022/11/09 05:11:54;;;;;;;9.70;4.63;;;9.90;99.90;;;;;;5030519;28;20482;-69
2022/11/09 05:14:19;;;;;;;14.38;4.85;;;9.90;99.90;;;;;;5023966;28;20124;-73
2022/11/09 05:16:45;;;;;;;10.05;4.82;;;9.90;99.90;;;;;;5020260;28;20033;-67
2022/11/09 05:19:11;;;;;;;12.50;5.10;;;9.80;99.90;;;;;;5025932;28;20374;-65
2022/11/09 05:21:36;;;;;;;11.60;5.15;;;9.80;99.90;;;;;;5026356;28;20053;-65
2022/11/09 05:24:02;;;;;;;14.45;6.00;;;9.70;99.90;;;;;;5026311;28;20049;-67
2022/11/09 05:26:40;;;;;;;8.88;5.15;;;9.70;99.90;;;;;;5031706;28;20033;-66
2022/11/09 05:29:08;;;;;;;12.68;5.45;;;9.70;99.90;;;;;;5021887;28;20033;-68
2022/11/09 05:31:34;;;;;;;9.40;4.68;;;9.70;99.90;;;;;;5031525;28;20025;-67
2022/11/09 05:34:00;;;;;;;18.23;6.07;;;9.70;99.90;;;;;;5040315;28;20535;-65
2022/11/09 05:36:27;;;;;;;9.50;5.55;;;9.70;99.90;;;;;;5034995;28;20069;-65
2022/11/09 05:38:53;;;;;;;9.55;5.20;;;9.60;99.90;;;;;;5026720;28;20029;-67
2022/11/09 05:41:19;;;;;;;14.10;5.95;;;9.60;99.90;;;;;;5027407;28;20033;-73
2022/11/09 05:43:46;;;;;;;13.23;5.50;;;9.60;99.90;;;;;;5030078;28;20164;-68
2022/11/09 05:46:16;;;;;;;12.00;5.53;;;9.70;99.90;;;;;;5027154;28;20473;-66
2022/11/09 05:48:42;;;;;;;10.98;5.40;;;9.80;99.90;;;;;;5028811;28;20477;-66
2022/11/09 05:51:10;;;;;;;11.25;5.60;;;9.80;99.90;;;;;;5029037;28;20045;-65
2022/11/09 05:53:36;;;;;;;12.27;5.55;;;9.80;99.90;;;;;;5031132;28;20125;-65
2022/11/09 05:56:04;;;;;;;10.35;5.65;;;9.80;99.90;;;;;;5044415;28;20533;-67
2022/11/09 05:58:31;;;;;;;11.43;5.45;;;9.80;99.90;;;;;;5031745;28;20385;-68
2022/11/09 06:00:58;;;;;;;13.55;5.57;;;9.80;99.90;;;;;;5045017;28;20029;-68
2022/11/09 06:03:24;;;;;;;11.68;5.75;;;9.70;99.90;;;;;;5030749;28;20033;-70
2022/11/09 06:05:50;;;;;;;12.30;5.88;;;9.80;99.90;;;;;;5044542;28;20032;-65
2022/11/09 06:08:15;;;;;;;9.85;5.35;;;9.80;99.90;;;;;;5036511;28;20108;-68
2022/11/09 06:10:41;;;;;;;11.63;6.10;;;9.80;99.90;;;;;;5035474;28;20029;-70
2022/11/09 06:13:07;;;;;;;11.13;5.97;;;9.80;99.90;;;;;;5032124;28;20029;-69
2022/11/09 06:15:33;;;;;;;10.07;5.43;;;9.80;99.90;;;;;;5037474;28;20036;-69
2022/11/09 06:17:59;;;;;;;12.05;5.75;;;9.70;99.90;;;;;;5042407;28;20098;-65
2022/11/09 06:20:26;;;;;;;11.80;5.88;;;9.70;99.90;;;;;;5036052;28;20037;-75
2022/11/09 06:22:53;;;;;;;15.27;6.50;;;9.70;99.90;;;;;;5042821;28;20041;-67
2022/11/09 06:25:18;;;;;;;24.95;12.38;;;9.70;99.90;;;;;;5037570;28;20048;-67
2022/11/09 06:27:44;;;;;;;17.15;8.82;;;9.70;99.90;;;;;;5034244;28;20038;-69
2022/11/09 06:30:10;;;;;;;27.27;14.20;;;9.70;99.90;;;;;;5032148;28;20029;-67
2022/11/09 06:32:36;;;;;;;20.67;11.60;;;9.60;99.90;;;;;;5035270;28;20107;-67
2022/11/09 06:35:02;;;;;;;19.00;9.23;;;9.60;99.90;;;;;;5036778;28;20128;-67
2022/11/09 06:37:27;;;;;;;17.88;8.27;;;9.60;99.90;;;;;;5027553;28;20081;-67
2022/11/09 06:39:53;;;;;;;13.55;7.07;;;9.50;99.90;;;;;;5031646;28;20051;-69
2022/11/09 06:42:18;;;;;;;13.23;7.18;;;9.50;99.90;;;;;;5032795;28;20037;-68
2022/11/09 06:44:44;;;;;;;15.95;7.65;;;9.50;99.90;;;;;;5031698;28;20103;-69
2022/11/09 06:47:09;;;;;;;17.35;7.45;;;9.60;99.90;;;;;;5042579;28;20037;-67
2022/11/09 06:49:35;;;;;;;16.15;7.55;;;9.60;99.90;;;;;;5041028;28;20040;-67
2022/11/09 06:52:01;;;;;;;16.70;7.95;;;9.70;99.90;;;;;;5037865;28;20173;-68
2022/11/09 06:54:27;;;;;;;13.07;7.40;;;9.70;99.90;;;;;;5040458;28;20393;-72
2022/11/09 06:56:54;;;;;;;13.32;7.50;;;9.70;99.90;;;;;;5044717;28;20025;-66
2022/11/09 06:59:19;;;;;;;18.38;9.07;;;9.70;99.90;;;;;;5042047;28;20521;-67
2022/11/09 07:01:45;;;;;;;19.48;9.32;;;9.80;99.90;;;;;;5043118;28;20020;-67
2022/11/09 07:04:13;;;;;;;18.90;10.48;;;9.80;99.90;;;;;;5028853;28;20028;-67
2022/11/09 07:06:40;;;;;;;20.35;10.05;;;9.80;99.90;;;;;;5038148;28;20688;-69
2022/11/09 07:09:06;;;;;;;20.77;9.02;;;9.80;99.90;;;;;;5031109;28;20026;-67
2022/11/09 07:11:32;;;;;;;19.55;10.18;;;9.80;99.90;;;;;;5049082;28;20021;-69
2022/11/09 07:13:57;;;;;;;18.23;10.15;;;9.80;99.90;;;;;;5033158;28;20477;-70
2022/11/09 07:16:23;;;;;;;23.27;12.43;;;9.80;99.90;;;;;;5038121;28;20025;-71
2022/11/09 07:18:49;;;;;;;24.52;11.73;;;9.90;99.90;;;;;;5038229;28;20037;-69
2022/11/09 07:21:14;;;;;;;23.67;12.68;;;9.80;99.90;;;;;;5030783;28;20053;-65
2022/11/09 07:23:41;;;;;;;27.23;12.55;;;9.80;99.90;;;;;;5025205;28;20042;-70
2022/11/09 07:26:07;;;;;;;20.13;11.38;;;9.80;99.90;;;;;;5027223;28;20382;-68
2022/11/09 07:28:32;;;;;;;22.30;11.13;;;9.80;99.90;;;;;;5029244;28;20025;-67
2022/11/09 07:30:58;;;;;;;19.10;11.15;;;9.80;99.90;;;;;;5027867;28;20061;-69
2022/11/09 07:33:25;;;;;;;23.50;10.60;;;9.90;99.90;;;;;;5030066;28;20500;-73
2022/11/09 07:35:51;;;;;;;80.07;14.70;;;9.90;99.90;;;;;;5030582;28;20104;-68
2022/11/09 07:38:18;;;;;;;23.20;12.63;;;9.90;99.90;;;;;;5030722;28;20033;-68
2022/11/09 07:40:44;;;;;;;23.50;12.80;;;9.90;99.90;;;;;;5029662;28;20034;-69
2022/11/09 07:43:11;;;;;;;26.73;13.38;;;9.90;99.90;;;;;;5030405;28;20128;-69
2022/11/09 07:45:37;;;;;;;24.92;12.35;;;9.90;99.90;;;;;;5029883;28;20036;-68
2022/11/09 07:48:08;;;;;;;22.80;12.15;;;9.90;99.90;;;;;;5029381;28;20079;-69
2022/11/09 07:50:34;;;;;;;23.35;11.45;;;9.90;99.90;;;;;;5029615;28;20032;-68
2022/11/09 07:53:01;;;;;;;22.88;11.55;;;9.90;99.90;;;;;;5028655;28;20468;-67
2022/11/09 07:55:27;;;;;;;22.15;11.48;;;9.90;99.90;;;;;;5030029;28;20535;-75
2022/11/09 07:57:57;;;;;;;21.40;10.65;;;9.90;99.90;;;;;;5029927;28;20033;-68
2022/11/09 08:00:24;;;;;;;22.83;12.05;;;9.90;99.90;;;;;;5028797;28;20068;-69
2022/11/09 08:02:50;;;;;;;30.40;13.05;;;9.90;99.90;;;;;;5027521;28;20119;-69
2022/11/09 08:05:16;;;;;;;22.63;11.90;;;10.00;99.90;;;;;;5027546;28;20120;-67
2022/11/09 08:07:41;;;;;;;22.20;11.38;;;10.00;99.90;;;;;;5026747;28;20120;-69
2022/11/09 08:10:07;;;;;;;22.77;11.85;;;10.00;99.90;;;;;;5027814;28;20052;-71
2022/11/09 08:12:33;;;;;;;451.50;22.42;;;10.00;99.90;;;;;;5028645;28;20064;-68
2022/11/09 08:14:59;;;;;;;216.98;15.90;;;9.90;99.90;;;;;;5029203;28;20491;-68
2022/11/09 08:17:24;;;;;;;392.38;19.80;;;9.80;99.90;;;;;;5029515;28;20034;-68
2022/11/09 08:19:50;;;;;;;19.48;10.00;;;9.80;99.90;;;;;;5029060;28;20033;-67
2022/11/09 08:22:15;;;;;;;19.27;9.32;;;9.80;99.90;;;;;;5029459;28;20061;-68
2022/11/09 08:24:41;;;;;;;16.90;9.20;;;9.70;99.90;;;;;;5029152;28;20162;-69
2022/11/09 08:27:07;;;;;;;16.92;9.63;;;9.80;99.90;;;;;;5029929;28;20471;-66
2022/11/09 08:29:32;;;;;;;17.60;8.95;;;9.80;99.90;;;;;;5027814;28;20032;-74
2022/11/09 08:31:58;;;;;;;18.27;10.25;;;9.90;99.90;;;;;;5029882;28;20029;-69
2022/11/09 08:34:24;;;;;;;18.75;8.75;;;9.90;99.90;;;;;;5029659;28;20788;-66
2022/11/09 08:36:49;;;;;;;13.65;6.28;;;9.90;99.90;;;;;;5029065;28;20045;-68
2022/11/09 08:39:15;;;;;;;18.48;9.25;;;10.20;99.90;;;;;;5029499;28;20033;-68
2022/11/09 08:41:41;;;;;;;37.05;11.32;;;10.30;99.90;;;;;;5028353;28;20656;-70
2022/11/09 08:44:06;;;;;;;20.10;9.52;;;10.20;99.90;;;;;;5027800;28;20036;-68
2022/11/09 08:46:32;;;;;;;17.35;7.90;;;10.20;99.90;;;;;;5028968;28;20031;-75
2022/11/09 08:48:58;;;;;;;10.68;5.82;;;10.20;99.90;;;;;;5028070;28;20057;-68
2022/11/09 08:51:23;;;;;;;11.68;5.60;;;10.30;99.90;;;;;;5029181;28;20772;-69
2022/11/09 08:53:50;;;;;;;8.70;5.07;;;10.50;99.90;;;;;;5028735;28;20706;-68
2022/11/09 08:56:17;;;;;;;9.70;5.07;;;10.70;99.90;;;;;;5027971;28;20116;-68
2022/11/09 08:58:44;;;;;;;8.32;4.32;;;10.80;99.90;;;;;;5027384;28;20489;-69
2022/11/09 09:01:10;;;;;;;7.28;4.63;;;10.80;99.90;;;;;;5029275;28;20034;-67
2022/11/09 09:03:36;;;;;;;10.00;5.20;;;10.80;99.90;;;;;;5028167;28;20592;-68
2022/11/09 09:06:06;;;;;;;6.78;4.38;;;10.80;99.90;;;;;;5029187;28;20104;-68
2022/11/09 09:08:32;;;;;;;9.80;4.28;;;10.80;99.90;;;;;;5028924;28;20026;-76
2022/11/09 09:11:05;;;;;;;9.63;4.85;;;10.80;99.90;;;;;;5028505;28;20037;-67
2022/11/09 09:13:31;;;;;;;10.00;4.88;;;10.90;99.90;;;;;;5027881;28;20136;-74
2022/11/09 09:16:07;;;;;;;8.50;4.30;;;10.90;99.90;;;;;;5028662;28;20029;-69
2022/11/09 09:18:32;;;;;;;8.05;4.75;;;11.00;99.90;;;;;;5028552;28;20029;-74
2022/11/09 09:20:58;;;;;;;7.47;4.38;;;11.00;99.90;;;;;;5027016;28;20025;-67
2022/11/09 09:23:23;;;;;;;8.20;4.13;;;11.10;99.90;;;;;;5028726;28;20506;-67
2022/11/09 09:25:49;;;;;;;13.70;5.15;;;11.10;99.90;;;;;;5027941;28;20033;-71
2022/11/09 09:28:15;;;;;;;6.00;3.75;;;11.10;99.90;;;;;;5027337;28;20033;-68
2022/11/09 09:30:40;;;;;;;10.57;4.60;;;11.10;99.90;;;;;;5028120;28;20041;-69
2022/11/09 09:33:06;;;;;;;8.98;4.80;;;11.10;99.90;;;;;;5028937;28;20025;-67
2022/11/09 09:35:31;;;;;;;8.95;4.35;;;11.10;99.90;;;;;;5028855;28;20041;-74
2022/11/09 09:37:57;;;;;;;12.18;4.35;;;11.10;99.90;;;;;;5028235;28;20082;-69
2022/11/09 09:40:30;;;;;;;8.43;3.97;;;11.20;99.90;;;;;;5028751;28;20104;-68
2022/11/09 09:42:56;;;;;;;8.52;3.50;;;11.20;99.90;;;;;;5027676;28;20025;-68
2022/11/09 09:45:29;;;;;;;6.45;3.60;;;11.20;99.90;;;;;;5028607;28;20737;-68
2022/11/09 09:48:36;;;;;;;7.55;4.30;;;11.30;99.90;;;;;;5026278;28;20017;-69
2022/11/09 09:51:34;;;;;;;6.65;3.65;;;11.30;99.90;;;;;;5025860;28;20037;-67
2022/11/09 09:54:06;;;;;;;4.90;3.17;;;11.40;99.90;;;;;;5028262;28;20072;-69
2022/11/09 09:56:39;;;;;;;6.65;2.85;;;11.50;99.90;;;;;;5028345;28;20034;-67
2022/11/09 09:59:35;;;;;;;4.75;2.92;;;11.60;99.90;;;;;;5028566;28;20033;-67
2022/11/09 10:02:01;;;;;;;6.13;3.05;;;11.60;99.90;;;;;;5028357;28;20025;-69
2022/11/09 10:04:40;;;;;;;6.13;3.03;;;11.70;99.90;;;;;;5026975;28;20037;-68
2022/11/09 10:07:11;;;;;;;5.13;2.92;;;11.70;99.90;;;;;;5028482;28;20482;-69
2022/11/09 10:09:44;;;;;;;4.88;3.05;;;11.80;99.90;;;;;;5027589;28;20385;-75
2022/11/09 10:12:15;;;;;;;9.45;3.35;;;11.90;99.90;;;;;;5028736;28;20366;-66
2022/11/09 10:14:41;;;;;;;6.45;3.47;;;12.00;99.90;;;;;;5026868;28;20084;-69
2022/11/09 10:17:48;;;;;;;3.97;2.63;;;12.10;99.90;;;;;;5028154;28;20085;-66
2022/11/09 10:20:33;;;;;;;3.80;2.50;;;12.20;99.90;;;;;;5015978;28;20064;-68
2022/11/09 10:23:20;;;;;;;3.58;2.00;;;12.30;99.90;;;;;;5027567;28;20188;-67
2022/11/09 10:25:52;;;;;;;3.28;1.60;;;12.40;99.90;;;;;;5027576;28;20033;-66
2022/11/09 10:28:22;;;;;;;4.65;1.80;;;12.50;99.90;;;;;;5027002;28;20026;-67
2022/11/09 10:30:48;;;;;;;3.27;1.90;;;12.60;99.90;;;;;;5025686;28;20069;-69
2022/11/09 10:33:20;;;;;;;3.08;1.33;;;12.80;99.90;;;;;;5027803;28;20034;-69
2022/11/09 10:35:54;;;;;;;14.75;5.40;;;13.00;99.90;;;;;;5027425;28;20040;-69
2022/11/09 10:38:40;;;;;;;6.93;3.50;;;13.20;99.90;;;;;;5031037;28;20029;-69
2022/11/09 10:41:27;;;;;;;4.15;2.28;;;13.60;99.90;;;;;;5031676;28;20466;-68
2022/11/09 10:43:53;;;;;;;9.18;3.90;;;13.90;99.90;;;;;;5030942;28;20034;-68
2022/11/09 10:46:20;;;;;;;6.25;3.30;;;14.20;99.90;;;;;;5030947;28;20114;-70
2022/11/09 10:48:46;;;;;;;4.35;1.30;;;14.30;99.90;;;;;;5028183;28;20060;-67
2022/11/09 10:51:37;;;;;;;2.60;1.27;;;14.50;99.90;;;;;;5031455;28;20025;-69
2022/11/09 10:54:24;;;;;;;1.80;1.15;;;14.70;99.90;;;;;;5030960;28;20437;-67
2022/11/09 10:57:10;;;;;;;1.48;0.70;;;14.80;99.90;;;;;;5029835;28;20039;-70
2022/11/09 10:59:42;;;;;;;0.70;0.50;;;14.90;99.90;;;;;;5031614;28;20123;-68
2022/11/09 11:02:26;;;;;;;1.73;0.70;;;14.90;99.90;;;;;;5031587;28;20033;-66
2022/11/09 11:04:58;;;;;;;1.95;0.70;;;14.90;99.90;;;;;;5030692;28;20050;-68
2022/11/09 11:07:24;;;;;;;5.35;0.60;;;15.10;99.90;;;;;;5031092;28;20036;-67
2022/11/09 11:09:50;;;;;;;0.95;0.40;;;15.20;99.90;;;;;;5030655;28;20036;-66
2022/11/09 11:12:19;;;;;;;1.27;0.60;;;15.00;99.90;;;;;;5030426;28;20033;-67
2022/11/09 11:14:45;;;;;;;1.38;0.73;;;15.00;99.90;;;;;;5030136;28;20041;-68
2022/11/09 11:17:33;;;;;;;2.55;0.80;;;15.10;99.90;;;;;;5031217;28;20061;-69
2022/11/09 11:20:29;;;;;;;1.33;0.60;;;15.20;99.90;;;;;;5030787;28;20151;-69
2022/11/09 11:23:08;;;;;;;1.23;0.65;;;15.40;99.90;;;;;;5029835;28;20509;-69
2022/11/09 11:25:38;;;;;;;2.30;0.70;;;15.10;99.90;;;;;;5029703;28;20038;-68
2022/11/09 11:28:43;;;;;;;2.83;0.85;;;15.10;99.90;;;;;;5029512;28;20037;-68
2022/11/09 11:31:15;;;;;;;1.48;0.68;;;15.30;99.90;;;;;;5029365;28;20034;-68
2022/11/09 11:33:41;;;;;;;2.28;0.70;;;15.30;99.90;;;;;;5011138;28;20037;-76
2022/11/09 11:36:37;;;;;;;2.30;0.77;;;15.30;99.90;;;;;;5011089;28;20088;-68
2022/11/09 11:39:18;;;;;;;2.58;0.70;;;15.40;99.90;;;;;;5010459;28;20040;-69
2022/11/09 11:41:58;;;;;;;1.45;0.90;;;15.50;99.90;;;;;;5016620;28;20064;-75
2022/11/09 11:44:36;;;;;;;1.08;0.80;;;15.50;99.90;;;;;;5030930;28;20037;-70
2022/11/09 11:47:17;;;;;;;3.92;1.00;;;15.20;99.90;;;;;;5029377;28;20745;-70
2022/11/09 11:50:20;;;;;;;1.85;0.90;;;15.10;99.90;;;;;;5029529;28;20108;-76
2022/11/09 11:53:13;;;;;;;4.68;1.17;;;15.30;99.90;;;;;;5029839;28;20033;-69
2022/11/09 11:55:53;;;;;;;3.42;1.30;;;15.40;99.90;;;;;;5030562;28;20041;-68
2022/11/09 11:58:26;;;;;;;2.28;1.30;;;15.70;99.90;;;;;;5029172;28;20029;-70
2022/11/09 12:01:15;;;;;;;5.43;1.20;;;15.70;99.90;;;;;;5028933;28;20045;-70
2022/11/09 12:03:50;;;;;;;2.33;1.02;;;15.90;99.90;;;;;;5029648;28;20132;-73
2022/11/09 12:06:50;;;;;;;3.75;0.93;;;15.90;99.90;;;;;;5030113;28;20038;-66
2022/11/09 12:10:06;;;;;;;2.83;1.00;;;15.80;99.90;;;;;;5030355;28;20103;-70
2022/11/09 12:12:49;;;;;;;3.45;1.45;;;15.50;99.90;;;;;;5016995;28;20046;-70
2022/11/09 12:15:21;;;;;;;1.85;1.08;;;15.30;99.90;;;;;;5030344;28;20033;-67
2022/11/09 12:17:53;;;;;;;5.93;1.80;;;15.10;99.90;;;;;;5029311;28;20044;-68
2022/11/09 12:20:40;;;;;;;9.57;1.63;;;15.00;99.90;;;;;;5030164;28;20053;-68
2022/11/09 12:23:33;;;;;;;2.95;1.40;;;15.00;99.90;;;;;;5027576;28;20191;-68
2022/11/09 12:26:36;;;;;;;1.95;1.13;;;15.00;99.90;;;;;;5028468;28;20475;-69
2022/11/09 12:29:17;;;;;;;2.90;1.38;;;14.90;99.90;;;;;;5020526;28;20120;-71
2022/11/09 12:31:54;;;;;;;2.10;1.10;;;14.90;99.90;;;;;;5029647;28;20028;-75
2022/11/09 12:34:36;;;;;;;3.45;1.52;;;14.90;99.90;;;;;;5029610;28;20447;-66
2022/11/09 12:37:04;;;;;;;4.45;1.70;;;14.90;99.90;;;;;;5028911;28;20030;-68
2022/11/09 12:39:46;;;;;;;3.63;1.58;;;14.90;99.90;;;;;;5029621;28;20033;-67
2022/11/09 12:42:50;;;;;;;3.65;1.60;;;14.90;99.90;;;;;;5009756;28;20064;-68
2022/11/09 12:45:29;;;;;;;4.90;1.67;;;14.80;99.90;;;;;;4987877;28;20077;-65
2022/11/09 12:47:57;;;;;;;4.07;1.52;;;14.80;99.90;;;;;;5026310;28;20041;-68
2022/11/09 12:50:25;;;;;;;2.83;1.42;;;14.80;99.90;;;;;;5029452;28;20516;-67
2022/11/09 12:52:52;;;;;;;4.07;1.77;;;14.80;99.90;;;;;;5028301;28;20036;-68
2022/11/09 12:55:24;;;;;;;3.95;1.70;;;14.90;99.90;;;;;;5029311;28;20091;-67
2022/11/09 12:57:49;;;;;;;3.08;1.70;;;14.90;99.90;;;;;;5028711;28;20454;-67